Val-D'Or, Quebec

7:25 AM EST on March 04, 2015 (GMT -0500)
Rouyn-Noranda | Change Station
CLOSE
Current Station
Airport
Location: Rouyn Airport,
Elevation: 988 ft
Nearby Weather Stations

Elev 988 ft 48.21 °N, 78.84 °W | Updated 11 minutes ago

Light Snow
Light Snow Low Drifting Snow
16 °F
Feels Like 1 °F
N
14
Wind Variable Wind from West

Today is forecast to be nearly the same temperature as yesterday.

Today
High -- | Low -- °F
--% Chance of Precip.
Yesterday
High -- | Low -- °F
Precip. -- in
6:46 AM 5:59 PM
Waxing Gibbous, 99% visible
Pressure 29.52 in
Visibility 4.0 miles
Clouds Mostly Cloudy 2500 ft
Windchill 1 °F
Dew Point 14 °F
Humidity 93%
Rainfall 0.00 in
Snow Depth Not available.
UV 0 out of 12
Pollen Not available.
Air Quality Not available.
Flu Activity Not available.
SPECI CYUY 041214Z 26012KT 4SM -SN DRSN BKN025 M09/M10 A2945 RMK SC7 SLP995

More Conditions Fewer Conditions

Pressure 29.52 in
Visibility 4.0 miles
Clouds Mostly Cloudy 2500 ft
Windchill 1 °F
Dew Point 14 °F
Humidity 93%
Rainfall 0.00 in
Snow Depth Not available.
UV 0 out of 12
Pollen Not available.
Air Quality Not available.
Flu Activity Not available.
SPECI CYUY 041214Z 26012KT 4SM -SN DRSN BKN025 M09/M10 A2945 RMK SC7 SLP995

More Conditions Fewer Conditions

10-Day Weather Forecast

Almanac

Astronomy

Mar. 04, 2015 Rise Set
Actual Time
Civil Twilight
Nautical Twilight
Astronomical Twilight
Moon
Length of Visible Light
Length of Day
Tomorrow will be .
, % of the Moon is Illuminated

Today's Extremes

Country Highs Country Lows

Community

WunderPhotos

Upload Photos

1,802,438 photos uploaded!

WunderBlogs® & News

Nearby

Air Quality

  Air Quality AQ Index Pollutant
Not available.

Snow Depth

Station Depth Elevation

Earthquake Activity

City Distance Mag. Time & Date
Minimum magnitude displayed is 2.5.

Coastal Water Temperatures

Place Temperature

Nearby Weather Stations